createdAt,value
2018-08-04T00:02:09.768Z,99050.23
2018-08-04T00:04:38.626Z,99051.59
2018-08-04T00:07:07.529Z,99048.11
2018-08-04T00:09:36.371Z,99055.53
2018-08-04T00:12:05.335Z,99049.95
2018-08-04T00:14:34.236Z,99046.38
2018-08-04T00:17:03.131Z,99042.53
2018-08-04T00:19:31.971Z,99046.52
2018-08-04T00:22:00.832Z,99047.02
2018-08-04T00:24:29.583Z,99049.61
2018-08-04T00:26:58.430Z,99042.77
2018-08-04T00:29:27.312Z,99046.66
2018-08-04T00:31:56.152Z,99041.16
2018-08-04T00:34:25.006Z,99044.39
2018-08-04T00:36:53.867Z,99032.59
2018-08-04T00:39:22.642Z,99023.33
2018-08-04T00:41:51.414Z,99024.97
2018-08-04T00:44:20.382Z,99024.69
2018-08-04T00:46:49.231Z,99028.75
2018-08-04T00:49:18.072Z,99030.77
2018-08-04T00:51:46.970Z,99026.16
2018-08-04T00:54:15.777Z,99026.70
2018-08-04T00:56:44.538Z,99026.91
2018-08-04T00:59:13.411Z,99027.27
2018-08-04T01:01:42.241Z,99021.47
2018-08-04T01:04:11.087Z,99028.02
2018-08-04T01:06:39.983Z,99026.34
2018-08-04T01:09:10.168Z,99020.11
2018-08-04T01:11:39.042Z,99014.69
2018-08-04T01:14:08.065Z,99012.17
2018-08-04T01:16:36.930Z,99011.92
2018-08-04T01:19:05.798Z,99015.63
2018-08-04T01:21:34.654Z,99017.53
2018-08-04T01:24:03.451Z,99011.23
2018-08-04T01:26:32.262Z,99017.25
2018-08-04T01:29:01.110Z,99011.61
2018-08-04T01:31:29.995Z,99013.00
2018-08-04T01:33:58.874Z,99018.27
2018-08-04T01:36:27.746Z,99012.52
2018-08-04T01:38:56.606Z,99012.44
2018-08-04T01:41:25.430Z,99017.86
2018-08-04T01:43:54.391Z,99018.91
2018-08-04T01:46:23.230Z,99012.59
2018-08-04T01:48:52.036Z,99013.41
2018-08-04T01:51:20.917Z,99018.34
2018-08-04T01:53:49.742Z,99015.83
2018-08-04T01:56:18.664Z,99009.19
2018-08-04T01:58:47.526Z,99014.42
2018-08-04T02:01:16.350Z,99009.49
2018-08-04T02:03:45.103Z,99008.41
2018-08-04T02:06:13.977Z,99009.97
2018-08-04T02:08:42.831Z,99008.13
2018-08-04T02:11:11.645Z,98996.23
2018-08-04T02:13:40.450Z,99012.45
2018-08-04T02:16:09.263Z,99007.76
2018-08-04T02:18:38.060Z,99005.70
2018-08-04T02:21:06.982Z,99001.08
2018-08-04T02:23:35.766Z,99000.09
2018-08-04T02:26:04.605Z,99003.89
2018-08-04T02:28:33.535Z,99004.41
2018-08-04T02:31:02.423Z,99001.41
2018-08-04T02:33:31.264Z,99016.56
2018-08-04T02:36:00.046Z,99011.23
2018-08-04T02:38:28.814Z,99012.27
2018-08-04T02:40:57.584Z,99017.72
2018-08-04T02:43:26.425Z,99018.27
2018-08-04T02:45:55.283Z,99021.06
2018-08-04T02:48:24.122Z,99022.59
2018-08-04T02:50:52.981Z,99019.23
2018-08-04T02:53:21.770Z,99015.02
2018-08-04T02:55:50.583Z,99020.54
2018-08-04T02:58:19.516Z,99022.70
2018-08-04T03:00:48.369Z,99020.48
2018-08-04T03:03:17.144Z,99030.16
2018-08-04T03:05:45.973Z,99024.66
2018-08-04T03:08:14.754Z,99020.25
2018-08-04T03:10:43.525Z,99022.62
2018-08-04T03:13:12.347Z,99025.58
2018-08-04T03:15:41.174Z,99024.32
2018-08-04T03:18:10.048Z,99031.81
2018-08-04T03:20:38.882Z,99030.41
2018-08-04T03:23:07.804Z,99021.66
2018-08-04T03:25:36.597Z,99025.48
2018-08-04T03:28:05.442Z,99025.53
2018-08-04T03:30:34.344Z,99027.81
2018-08-04T03:33:03.217Z,99021.02
2018-08-04T03:35:32.137Z,99022.80
2018-08-04T03:38:01.020Z,99024.23
2018-08-04T03:40:29.787Z,99025.05
2018-08-04T03:42:58.643Z,99021.39
2018-08-04T03:45:27.492Z,99029.10
2018-08-04T03:47:56.393Z,99029.33
2018-08-04T03:50:25.278Z,99035.11
2018-08-04T03:52:54.081Z,99037.72
2018-08-04T03:55:22.920Z,99046.38
2018-08-04T03:57:51.762Z,99053.73
2018-08-04T04:00:20.633Z,99043.53
2018-08-04T04:02:49.383Z,99045.09
2018-08-04T04:05:18.204Z,99046.76
2018-08-04T04:07:46.993Z,99047.47
2018-08-04T04:10:16.132Z,99048.23
2018-08-04T04:12:45.020Z,99043.73
2018-08-04T04:15:13.915Z,99049.66
2018-08-04T04:17:49.823Z,99058.13
2018-08-04T04:20:20.688Z,99055.57
2018-08-04T04:22:49.908Z,99060.88
2018-08-04T04:25:18.778Z,99065.06
2018-08-04T04:27:47.630Z,99054.41
2018-08-04T04:30:16.498Z,99050.84
2018-08-04T04:32:45.393Z,99061.27
2018-08-04T04:35:14.220Z,99068.59
2018-08-04T04:37:43.047Z,99060.35
2018-08-04T04:40:11.979Z,99066.56
2018-08-04T04:42:40.817Z,99068.59
2018-08-04T04:45:09.686Z,99070.56
2018-08-04T04:47:38.644Z,99064.95
2018-08-04T04:50:07.495Z,99071.20
2018-08-04T04:52:36.396Z,99076.14
2018-08-04T04:55:05.587Z,99081.28
2018-08-04T04:57:34.456Z,99083.03
2018-08-04T05:00:03.399Z,99084.55
2018-08-04T05:02:32.228Z,99081.66
2018-08-04T05:05:01.661Z,99079.45
2018-08-04T05:07:30.504Z,99079.28
2018-08-04T05:09:59.409Z,99082.05
2018-08-04T05:12:28.223Z,99082.03
2018-08-04T05:14:57.085Z,99091.59
2018-08-04T05:17:26.126Z,99084.59
2018-08-04T05:19:55.042Z,99086.08
2018-08-04T05:22:24.000Z,99083.77
2018-08-04T05:24:53.066Z,99087.38
2018-08-04T05:27:21.913Z,99088.20
2018-08-04T05:29:50.781Z,99093.02
2018-08-04T05:32:19.796Z,99086.03
2018-08-04T05:34:48.690Z,99091.17
2018-08-04T05:37:17.697Z,99093.34
2018-08-04T05:39:46.602Z,99091.59
2018-08-04T05:42:15.481Z,99091.27
2018-08-04T05:44:44.394Z,99089.72
2018-08-04T05:47:14.421Z,99094.37
2018-08-04T05:49:43.513Z,99100.13
2018-08-04T05:52:12.418Z,99102.61
2018-08-04T05:54:41.296Z,99101.27
2018-08-04T05:57:10.220Z,99097.83
2018-08-04T05:59:39.074Z,99100.64
2018-08-04T06:02:08.221Z,99106.94
2018-08-04T06:04:37.097Z,99106.63
2018-08-04T06:07:06.107Z,99112.59
2018-08-04T06:09:35.051Z,99102.72
2018-08-04T06:12:04.078Z,99093.46
2018-08-04T06:14:33.044Z,99100.91
2018-08-04T06:17:02.071Z,99107.25
2018-08-04T06:19:30.984Z,99107.51
2018-08-04T06:21:59.920Z,99102.87
2018-08-04T06:24:28.867Z,99099.25
2018-08-04T06:26:57.708Z,99098.16
2018-08-04T06:29:26.689Z,99099.03
2018-08-04T06:31:55.628Z,99097.89
2018-08-04T06:34:24.555Z,99097.08
2018-08-04T06:36:54.038Z,99091.91
2018-08-04T06:39:22.983Z,99095.75
2018-08-04T06:41:51.929Z,99092.19
2018-08-04T06:44:20.851Z,99100.70
2018-08-04T06:46:50.040Z,99092.41
2018-08-04T06:49:18.985Z,99079.41
2018-08-04T06:51:47.944Z,99093.28
2018-08-04T06:54:16.983Z,99086.12
2018-08-04T06:56:45.980Z,99086.98
2018-08-04T06:59:14.919Z,99090.05
2018-08-04T07:01:43.886Z,99089.69
2018-08-04T07:04:12.901Z,99092.42
2018-08-04T07:06:41.819Z,99092.07
2018-08-04T07:09:11.131Z,99093.81
2018-08-04T07:11:40.974Z,99099.04
2018-08-04T07:14:09.895Z,99096.88
2018-08-04T07:16:39.150Z,99090.68
2018-08-04T07:19:08.170Z,99088.52
2018-08-04T07:21:37.185Z,99094.66
2018-08-04T07:24:07.058Z,99085.16
2018-08-04T07:26:36.078Z,99089.62
2018-08-04T07:29:05.128Z,99091.14
2018-08-04T07:31:34.162Z,99090.19
2018-08-04T07:34:03.092Z,99087.37
2018-08-04T07:36:32.122Z,99092.55
2018-08-04T07:39:01.130Z,99086.16
2018-08-04T07:41:30.112Z,99085.84
2018-08-04T07:43:59.078Z,99090.58
2018-08-04T07:46:28.056Z,99091.30
2018-08-04T07:48:57.033Z,99089.72
2018-08-04T07:51:25.936Z,99086.87
2018-08-04T07:53:54.815Z,99083.48
2018-08-04T07:56:23.705Z,99084.95
2018-08-04T07:58:52.659Z,99082.57
2018-08-04T08:01:21.604Z,99086.53
2018-08-04T08:03:50.575Z,99075.28
2018-08-04T08:06:19.626Z,99075.70
2018-08-04T08:08:48.634Z,99072.91
2018-08-04T08:11:17.694Z,99075.50
2018-08-04T08:13:46.675Z,99066.31
2018-08-04T08:16:15.800Z,99069.92
2018-08-04T08:18:45.366Z,99067.61
2018-08-04T08:21:14.346Z,99055.31
2018-08-04T08:23:43.477Z,99061.23
2018-08-04T08:26:14.565Z,99052.55
2018-08-04T08:28:43.810Z,99062.67
2018-08-04T08:31:12.826Z,99055.94
2018-08-04T08:33:41.871Z,99059.98
2018-08-04T08:36:11.040Z,99049.34
2018-08-04T08:38:40.096Z,99054.48
2018-08-04T08:41:09.968Z,99049.53
2018-08-04T08:43:38.986Z,99044.78
2018-08-04T08:46:08.017Z,99047.29
2018-08-04T08:48:36.880Z,99043.70
2018-08-04T08:51:06.026Z,99046.76
2018-08-04T08:53:35.065Z,99047.45
2018-08-04T08:56:03.870Z,99044.85
2018-08-04T08:58:32.892Z,99041.19
2018-08-04T09:01:01.861Z,99038.11
2018-08-04T09:03:30.902Z,99034.27
2018-08-04T09:05:59.790Z,99040.39
2018-08-04T09:08:28.790Z,99039.78
2018-08-04T09:10:57.894Z,99038.28
2018-08-04T09:13:26.856Z,99042.78
2018-08-04T09:15:55.827Z,99033.11
2018-08-04T09:18:24.806Z,99045.02
2018-08-04T09:20:54.871Z,99028.52
2018-08-04T09:23:24.151Z,99030.84
2018-08-04T09:25:53.091Z,99030.02
2018-08-04T09:28:22.000Z,99032.61
2018-08-04T09:30:51.162Z,99038.74
2018-08-04T09:33:20.169Z,99029.67
2018-08-04T09:35:49.208Z,99022.64
2018-08-04T09:38:18.271Z,99021.84
2018-08-04T09:40:47.194Z,99026.79
2018-08-04T09:43:16.172Z,99027.80
2018-08-04T09:45:45.642Z,99028.14
2018-08-04T09:48:14.698Z,99018.91
2018-08-04T09:50:43.635Z,99023.08
2018-08-04T09:53:12.634Z,99028.87
2018-08-04T09:55:41.641Z,99030.98
2018-08-04T09:58:10.649Z,99028.20
2018-08-04T10:00:44.661Z,99026.30
2018-08-04T10:03:13.670Z,99024.19
2018-08-04T10:05:42.692Z,99022.19
2018-08-04T10:08:12.584Z,99022.19
2018-08-04T10:10:41.526Z,99026.24
2018-08-04T10:13:10.432Z,99021.70
2018-08-04T10:15:39.485Z,99018.87
2018-08-04T10:18:08.441Z,99019.83
2018-08-04T10:20:37.346Z,99022.16
2018-08-04T10:23:06.484Z,99017.48
2018-08-04T10:25:35.627Z,99013.23
2018-08-04T10:28:04.642Z,99010.10
2018-08-04T10:30:33.536Z,99007.77
2018-08-04T10:33:02.401Z,99007.30
2018-08-04T10:35:31.925Z,99015.73
2018-08-04T10:38:00.811Z,99008.03
2018-08-04T10:40:29.783Z,99010.09
2018-08-04T10:42:58.648Z,99002.39
2018-08-04T10:45:27.645Z,99011.83
2018-08-04T10:47:56.909Z,99009.23
2018-08-04T10:50:25.934Z,99005.17
2018-08-04T10:52:54.956Z,99005.41
2018-08-04T10:55:23.790Z,99005.58
2018-08-04T10:57:52.640Z,99011.02
2018-08-04T11:00:21.551Z,99002.92
2018-08-04T11:02:50.439Z,99007.30
2018-08-04T11:05:19.232Z,99005.74
2018-08-04T11:07:48.116Z,98999.20
2018-08-04T11:10:16.906Z,99001.41
2018-08-04T11:12:45.681Z,99001.58
2018-08-04T11:15:14.488Z,99002.65
2018-08-04T11:17:43.355Z,98996.02
2018-08-04T11:20:12.300Z,99000.81
2018-08-04T11:22:41.103Z,98991.16
2018-08-04T11:25:09.893Z,99000.52
2018-08-04T11:27:38.733Z,98999.22
2018-08-04T11:30:08.508Z,98998.12
2018-08-04T11:32:37.476Z,98992.97
2018-08-04T11:35:06.523Z,98995.25
2018-08-04T11:37:35.400Z,98997.38
2018-08-04T11:40:04.399Z,98983.51
2018-08-04T11:42:33.218Z,98982.39
2018-08-04T11:45:02.078Z,98979.55
2018-08-04T11:47:30.960Z,98977.52
2018-08-04T11:49:59.766Z,98969.13
2018-08-04T11:52:28.575Z,98970.79
2018-08-04T11:54:57.394Z,98964.16
2018-08-04T11:57:26.139Z,98968.71
2018-08-04T11:59:54.936Z,98964.41
2018-08-04T12:02:23.737Z,98960.70
2018-08-04T12:04:52.553Z,98959.48
2018-08-04T12:07:21.355Z,98958.41
2018-08-04T12:09:50.161Z,98954.27
2018-08-04T12:12:18.954Z,98953.44
2018-08-04T12:14:47.792Z,98954.34
2018-08-04T12:17:16.576Z,98957.24
2018-08-04T12:19:45.332Z,98953.44
2018-08-04T12:22:14.187Z,98951.05
2018-08-04T12:24:42.929Z,98947.95
2018-08-04T12:27:11.698Z,98941.70
2018-08-04T12:29:40.556Z,98937.84
2018-08-04T12:32:09.357Z,98940.33
2018-08-04T12:34:38.115Z,98943.69
2018-08-04T12:37:07.091Z,98936.29
2018-08-04T12:39:35.877Z,98941.98
2018-08-04T12:42:04.795Z,98935.81
2018-08-04T12:44:33.619Z,98933.61
2018-08-04T12:47:02.411Z,98935.77
2018-08-04T12:49:31.193Z,98934.47
2018-08-04T12:52:00.045Z,98928.21
2018-08-04T12:54:28.836Z,98926.25
2018-08-04T12:56:57.634Z,98922.41
2018-08-04T12:59:26.444Z,98923.41
2018-08-04T13:01:55.252Z,98930.17
2018-08-04T13:04:24.026Z,98920.45
2018-08-04T13:06:52.945Z,98919.05
2018-08-04T13:09:21.768Z,98918.55
2018-08-04T13:11:50.599Z,98921.35
2018-08-04T13:14:19.389Z,98918.23
2018-08-04T13:16:48.291Z,98918.60
2018-08-04T13:19:17.086Z,98923.63
2018-08-04T13:21:45.935Z,98920.73
2018-08-04T13:24:14.764Z,98924.53
2018-08-04T13:26:43.549Z,98926.40
2018-08-04T13:29:12.319Z,98922.05
2018-08-04T13:31:41.091Z,98927.18
2018-08-04T13:34:09.931Z,98920.48
2018-08-04T13:36:38.732Z,98922.18
2018-08-04T13:39:09.154Z,98927.74
2018-08-04T13:41:38.433Z,98920.98
2018-08-04T13:44:07.435Z,98916.48
2018-08-04T13:46:36.324Z,98924.94
2018-08-04T13:49:05.191Z,98921.42
2018-08-04T13:51:33.977Z,98933.95
2018-08-04T13:54:02.783Z,98927.25
2018-08-04T13:56:31.670Z,98927.25
2018-08-04T13:59:00.525Z,98925.61
2018-08-04T14:01:29.401Z,98926.23
2018-08-04T14:03:58.305Z,98921.20
2018-08-04T14:06:27.193Z,98924.23
2018-08-04T14:08:56.010Z,98916.65
2018-08-04T14:11:24.891Z,98915.52
2018-08-04T14:13:53.777Z,98916.02
2018-08-04T14:16:22.622Z,98919.02
2018-08-04T14:18:51.492Z,98917.55
2018-08-04T14:21:20.384Z,98917.98
2018-08-04T14:23:49.293Z,98914.16
2018-08-04T14:26:18.125Z,98913.66
2018-08-04T14:28:47.077Z,98906.94
2018-08-04T14:31:15.858Z,98906.13
2018-08-04T14:33:44.680Z,98907.52
2018-08-04T14:36:13.584Z,98905.16
2018-08-04T14:38:42.366Z,98908.78
2018-08-04T14:41:11.199Z,98902.02
2018-08-04T14:43:40.009Z,98907.98
2018-08-04T14:46:09.269Z,98899.59
2018-08-04T14:48:38.114Z,98892.91
2018-08-04T14:51:06.890Z,98901.05
2018-08-04T14:53:35.731Z,98892.64
2018-08-04T14:56:04.632Z,98894.50
2018-08-04T14:58:33.463Z,98894.34
2018-08-04T15:01:02.282Z,98892.48
2018-08-04T15:03:31.070Z,98893.80
2018-08-04T15:05:59.854Z,98891.47
2018-08-04T15:08:28.697Z,98883.84
2018-08-04T15:10:57.510Z,98884.05
2018-08-04T15:13:26.384Z,98887.12
2018-08-04T15:15:55.199Z,98882.45
2018-08-04T15:18:24.833Z,98880.66
2018-08-04T15:20:53.650Z,98887.20
2018-08-04T15:23:22.435Z,98884.55
2018-08-04T15:25:51.245Z,98884.26
2018-08-04T15:28:20.091Z,98888.43
2018-08-04T15:30:49.508Z,98887.69
2018-08-04T15:33:18.437Z,98889.27
2018-08-04T15:35:47.233Z,98887.41
2018-08-04T15:38:16.085Z,98887.44
2018-08-04T15:40:44.953Z,98886.69
2018-08-04T15:43:13.836Z,98887.01
2018-08-04T15:45:42.605Z,98888.30
2018-08-04T15:48:11.493Z,98886.73
2018-08-04T15:50:40.434Z,98882.06
2018-08-04T15:53:09.308Z,98881.48
2018-08-04T15:55:39.119Z,98880.80
2018-08-04T15:58:08.021Z,98880.17
2018-08-04T16:00:36.893Z,98885.55
2018-08-04T16:03:05.933Z,98881.69
2018-08-04T16:05:34.822Z,98881.15
2018-08-04T16:08:03.764Z,98882.59
2018-08-04T16:10:32.662Z,98882.39
2018-08-04T16:13:01.466Z,98883.34
2018-08-04T16:15:30.329Z,98882.50
2018-08-04T16:17:59.378Z,98883.25
2018-08-04T16:20:28.236Z,98896.14
2018-08-04T16:22:57.063Z,98891.66
2018-08-04T16:25:26.010Z,98896.37
2018-08-04T16:27:54.840Z,98902.97
2018-08-04T16:30:23.671Z,98904.11
2018-08-04T16:32:52.538Z,98907.90
2018-08-04T16:35:21.421Z,98913.28
2018-08-04T16:37:50.273Z,98913.12
2018-08-04T16:40:19.168Z,98913.40
2018-08-04T16:42:48.032Z,98910.31
2018-08-04T16:45:16.878Z,98909.59
2018-08-04T16:47:45.717Z,98916.84
2018-08-04T16:50:14.560Z,98915.28
2018-08-04T16:52:43.393Z,98912.13
2018-08-04T16:55:12.308Z,98913.88
2018-08-04T16:57:41.083Z,98913.97
2018-08-04T17:00:09.947Z,98912.24
2018-08-04T17:02:38.880Z,98917.99
2018-08-04T17:05:07.729Z,98918.73
2018-08-04T17:07:36.557Z,98918.23
2018-08-04T17:10:05.725Z,98915.09
2018-08-04T17:12:34.546Z,98915.04
2018-08-04T17:15:03.602Z,98920.18
2018-08-04T17:17:32.516Z,98919.63
2018-08-04T17:20:01.333Z,98922.42
2018-08-04T17:22:30.178Z,98923.14
2018-08-04T17:24:59.076Z,98925.54
2018-08-04T17:27:27.863Z,98923.34
2018-08-04T17:29:56.682Z,98927.74
2018-08-04T17:32:25.559Z,98934.35
2018-08-04T17:34:54.348Z,98933.42
2018-08-04T17:37:23.437Z,98935.47
2018-08-04T17:39:52.344Z,98947.00
2018-08-04T17:42:21.188Z,98950.08
2018-08-04T17:44:50.097Z,98951.19
2018-08-04T17:47:19.086Z,98950.08
2018-08-04T17:49:47.941Z,98957.95
2018-08-04T17:52:16.823Z,98963.92
2018-08-04T17:54:45.742Z,98970.33
2018-08-04T17:57:14.680Z,98968.94
2018-08-04T17:59:43.487Z,98966.49
2018-08-04T18:02:12.399Z,98971.91
2018-08-04T18:04:41.276Z,98973.54
2018-08-04T18:07:10.138Z,98975.28
2018-08-04T18:09:39.000Z,98980.27
2018-08-04T18:12:07.868Z,98986.05
2018-08-04T18:14:36.681Z,98985.58
2018-08-04T18:17:05.716Z,98987.02
2018-08-04T18:19:34.500Z,98991.25
2018-08-04T18:22:03.333Z,98991.05
2018-08-04T18:24:32.154Z,98991.53
2018-08-04T18:27:00.976Z,98996.00
2018-08-04T18:29:30.333Z,98992.59
2018-08-04T18:31:59.411Z,98992.39
2018-08-04T18:34:28.238Z,99003.59
2018-08-04T18:36:57.093Z,99008.16
2018-08-04T18:39:25.898Z,99004.30
2018-08-04T18:41:54.846Z,99008.70
2018-08-04T18:44:23.708Z,99005.69
2018-08-04T18:46:52.538Z,99006.14
2018-08-04T18:49:21.375Z,99006.12
2018-08-04T18:51:50.210Z,99008.69
2018-08-04T18:54:19.092Z,99011.65
2018-08-04T18:56:47.980Z,99015.38
2018-08-04T18:59:16.770Z,99005.31
2018-08-04T19:01:45.583Z,99013.31
2018-08-04T19:04:14.361Z,99006.92
2018-08-04T19:06:43.248Z,99013.31
2018-08-04T19:09:12.743Z,99011.17
2018-08-04T19:11:41.586Z,99011.17
2018-08-04T19:14:11.123Z,99006.39
2018-08-04T19:16:39.959Z,99003.09
2018-08-04T19:19:08.851Z,99004.63
2018-08-04T19:21:37.763Z,99002.30
2018-08-04T19:24:07.284Z,99005.73
2018-08-04T19:26:36.162Z,99005.27
2018-08-04T19:29:05.094Z,99003.83
2018-08-04T19:31:34.006Z,99006.67
2018-08-04T19:34:02.806Z,98999.80
2018-08-04T19:36:31.695Z,99002.76
2018-08-04T19:39:00.510Z,99004.27
2018-08-04T19:41:29.339Z,98999.03
2018-08-04T19:43:58.259Z,99002.13
2018-08-04T19:46:27.101Z,99004.66
2018-08-04T19:48:55.994Z,99005.30
2018-08-04T19:51:24.790Z,99008.29
2018-08-04T19:53:53.682Z,99001.44
2018-08-04T19:56:22.585Z,99009.87
2018-08-04T19:58:51.442Z,99005.38
2018-08-04T20:01:20.347Z,98999.21
2018-08-04T20:03:49.251Z,99010.65
2018-08-04T20:06:18.194Z,99003.33
2018-08-04T20:08:47.008Z,99001.39
2018-08-04T20:11:15.868Z,99002.97
2018-08-04T20:13:44.636Z,99008.09
2018-08-04T20:16:13.551Z,99006.25
2018-08-04T20:18:42.428Z,99001.87
2018-08-04T20:21:11.362Z,99008.09
2018-08-04T20:23:40.288Z,99011.20
2018-08-04T20:26:09.127Z,99011.61
2018-08-04T20:28:37.924Z,99017.69
2018-08-04T20:31:06.814Z,99014.97
2018-08-04T20:33:35.757Z,99017.80
2018-08-04T20:36:04.642Z,99020.45
2018-08-04T20:38:33.570Z,99018.31
2018-08-04T20:41:02.771Z,99014.80
2018-08-04T20:43:31.628Z,99007.41
2018-08-04T20:46:00.481Z,99007.97
2018-08-04T20:48:29.340Z,99019.27
2018-08-04T20:50:58.221Z,99020.75
2018-08-04T20:53:27.266Z,99016.84
2018-08-04T20:55:56.095Z,99025.33
2018-08-04T20:58:24.986Z,99025.50
2018-08-04T21:01:04.753Z,99022.10
2018-08-04T21:03:33.584Z,99025.02
2018-08-04T21:06:02.516Z,99034.23
2018-08-04T21:08:31.404Z,99032.61
2018-08-04T21:11:01.180Z,99037.12
2018-08-04T21:13:30.043Z,99040.46
2018-08-04T21:15:58.861Z,99049.15
2018-08-04T21:18:27.710Z,99054.33
2018-08-04T21:20:56.671Z,99057.88
2018-08-04T21:23:25.408Z,99055.38
2018-08-04T21:25:54.208Z,99059.79
2018-08-04T21:28:23.011Z,99057.22
2018-08-04T21:30:51.838Z,99060.02
2018-08-04T21:33:20.642Z,99055.16
2018-08-04T21:35:49.539Z,99065.12
2018-08-04T21:38:18.284Z,99070.63
2018-08-04T21:40:47.093Z,99072.51
2018-08-04T21:43:15.918Z,99071.63
2018-08-04T21:45:44.911Z,99069.77
2018-08-04T21:48:13.739Z,99074.80
2018-08-04T21:50:42.560Z,99070.92
2018-08-04T21:53:11.434Z,99069.54
2018-08-04T21:55:40.330Z,99069.86
2018-08-04T21:58:09.196Z,99073.14
2018-08-04T22:00:42.156Z,99072.15
2018-08-04T22:03:11.003Z,99077.14
2018-08-04T22:05:39.826Z,99072.41
2018-08-04T22:08:19.635Z,99077.88
2018-08-04T22:10:48.407Z,99079.21
2018-08-04T22:13:17.267Z,99087.89
2018-08-04T22:15:46.106Z,99085.38
2018-08-04T22:18:14.857Z,99085.44
2018-08-04T22:20:43.640Z,99085.98
2018-08-04T22:23:12.589Z,99091.80
2018-08-04T22:25:41.356Z,99092.36
2018-08-04T22:28:10.261Z,99092.13
2018-08-04T22:30:39.034Z,99086.34
2018-08-04T22:33:07.771Z,99088.84
2018-08-04T22:35:36.579Z,99090.80
2018-08-04T22:38:05.564Z,99094.37
2018-08-04T22:40:34.464Z,99095.48
2018-08-04T22:43:03.268Z,99096.58
2018-08-04T22:46:20.018Z,99094.39
2018-08-04T22:48:50.215Z,99096.33
2018-08-04T22:51:28.576Z,99093.02
2018-08-04T22:53:57.584Z,99082.56
2018-08-04T22:56:26.809Z,99080.63
2018-08-04T22:58:55.636Z,99080.88
2018-08-04T23:01:24.481Z,99072.36
2018-08-04T23:03:53.439Z,99072.66
2018-08-04T23:06:22.299Z,99065.75
2018-08-04T23:08:51.129Z,99074.58
2018-08-04T23:11:19.969Z,99069.88
2018-08-04T23:13:49.103Z,99069.08
2018-08-04T23:16:17.830Z,99071.83
2018-08-04T23:18:46.681Z,99069.59
2018-08-04T23:21:15.565Z,99070.66
2018-08-04T23:23:44.326Z,99068.48
2018-08-04T23:26:13.201Z,99065.77
2018-08-04T23:28:42.034Z,99067.40
2018-08-04T23:31:10.943Z,99067.57
2018-08-04T23:33:39.688Z,99064.36
2018-08-04T23:36:08.568Z,99074.56
2018-08-04T23:38:37.353Z,99062.42
2018-08-04T23:41:06.148Z,99063.50
2018-08-04T23:43:34.944Z,99063.54
2018-08-04T23:46:03.878Z,99059.97
2018-08-04T23:48:32.675Z,99052.28
2018-08-04T23:51:01.581Z,99055.85
2018-08-04T23:53:30.372Z,99051.70
2018-08-04T23:55:59.217Z,99048.95
2018-08-04T23:58:28.083Z,99045.12
